sensor_id;sensor_type;location;lat;lon;timestamp;P1;durP1;ratioP1;P2;durP2;ratioP2
34737;SDS011;39910;47.154;27.614;2023-07-31T00:01:22;11.02;;;10.52;;
34737;SDS011;39910;47.154;27.614;2023-07-31T00:03:47;11.35;;;10.85;;
34737;SDS011;39910;47.154;27.614;2023-07-31T00:06:12;11.30;;;10.80;;
34737;SDS011;39910;47.154;27.614;2023-07-31T00:08:38;11.05;;;10.55;;
34737;SDS011;39910;47.154;27.614;2023-07-31T00:11:03;11.07;;;10.57;;
34737;SDS011;39910;47.154;27.614;2023-07-31T00:13:28;11.38;;;10.88;;
34737;SDS011;39910;47.154;27.614;2023-07-31T00:15:54;10.68;;;10.18;;
34737;SDS011;39910;47.154;27.614;2023-07-31T00:18:19;10.85;;;10.35;;
34737;SDS011;39910;47.154;27.614;2023-07-31T00:20:44;11.30;;;10.80;;
34737;SDS011;39910;47.154;27.614;2023-07-31T00:23:10;11.38;;;10.88;;
34737;SDS011;39910;47.154;27.614;2023-07-31T00:25:35;11.07;;;10.57;;
34737;SDS011;39910;47.154;27.614;2023-07-31T00:28:00;11.88;;;11.27;;
34737;SDS011;39910;47.154;27.614;2023-07-31T00:30:26;11.00;;;10.50;;
34737;SDS011;39910;47.154;27.614;2023-07-31T00:32:52;11.25;;;10.75;;
34737;SDS011;39910;47.154;27.614;2023-07-31T00:35:17;11.15;;;10.65;;
34737;SDS011;39910;47.154;27.614;2023-07-31T00:37:42;11.18;;;10.68;;
34737;SDS011;39910;47.154;27.614;2023-07-31T00:40:08;11.07;;;10.57;;
34737;SDS011;39910;47.154;27.614;2023-07-31T00:42:33;11.15;;;10.65;;
34737;SDS011;39910;47.154;27.614;2023-07-31T00:44:58;11.05;;;10.55;;
34737;SDS011;39910;47.154;27.614;2023-07-31T00:47:24;10.93;;;10.43;;
34737;SDS011;39910;47.154;27.614;2023-07-31T00:49:49;11.30;;;10.80;;
34737;SDS011;39910;47.154;27.614;2023-07-31T00:52:15;11.10;;;10.60;;
34737;SDS011;39910;47.154;27.614;2023-07-31T00:54:40;11.25;;;10.75;;
34737;SDS011;39910;47.154;27.614;2023-07-31T00:57:05;11.05;;;10.55;;
34737;SDS011;39910;47.154;27.614;2023-07-31T00:59:33;11.30;;;10.80;;
34737;SDS011;39910;47.154;27.614;2023-07-31T01:01:58;11.20;;;10.70;;
34737;SDS011;39910;47.154;27.614;2023-07-31T01:04:23;11.05;;;10.55;;
34737;SDS011;39910;47.154;27.614;2023-07-31T01:12:25;11.67;;;11.17;;
34737;SDS011;39910;47.154;27.614;2023-07-31T01:15:10;11.18;;;10.68;;
34737;SDS011;39910;47.154;27.614;2023-07-31T01:17:38;11.30;;;10.80;;
34737;SDS011;39910;47.154;27.614;2023-07-31T01:20:05;11.43;;;10.93;;
34737;SDS011;39910;47.154;27.614;2023-07-31T01:28:17;11.00;;;10.50;;
34737;SDS011;39910;47.154;27.614;2023-07-31T01:30:34;11.05;;;10.55;;
34737;SDS011;39910;47.154;27.614;2023-07-31T01:33:02;11.25;;;10.75;;
34737;SDS011;39910;47.154;27.614;2023-07-31T01:35:32;11.15;;;10.65;;
34737;SDS011;39910;47.154;27.614;2023-07-31T01:37:58;11.00;;;10.50;;
34737;SDS011;39910;47.154;27.614;2023-07-31T01:40:23;11.02;;;10.52;;
34737;SDS011;39910;47.154;27.614;2023-07-31T01:42:48;11.35;;;10.85;;
34737;SDS011;39910;47.154;27.614;2023-07-31T01:45:14;11.20;;;10.70;;
34737;SDS011;39910;47.154;27.614;2023-07-31T01:47:39;11.07;;;10.57;;
34737;SDS011;39910;47.154;27.614;2023-07-31T01:50:05;11.32;;;10.82;;
34737;SDS011;39910;47.154;27.614;2023-07-31T01:52:30;11.25;;;10.75;;
34737;SDS011;39910;47.154;27.614;2023-07-31T01:54:58;10.80;;;10.30;;
34737;SDS011;39910;47.154;27.614;2023-07-31T01:57:24;11.05;;;10.55;;
34737;SDS011;39910;47.154;27.614;2023-07-31T01:59:49;11.10;;;10.60;;
34737;SDS011;39910;47.154;27.614;2023-07-31T02:02:15;11.20;;;10.70;;
34737;SDS011;39910;47.154;27.614;2023-07-31T02:04:41;11.48;;;10.98;;
34737;SDS011;39910;47.154;27.614;2023-07-31T02:07:06;11.20;;;10.70;;
34737;SDS011;39910;47.154;27.614;2023-07-31T02:09:31;11.35;;;10.85;;
34737;SDS011;39910;47.154;27.614;2023-07-31T02:11:57;11.35;;;10.85;;
34737;SDS011;39910;47.154;27.614;2023-07-31T02:14:22;11.23;;;10.73;;
34737;SDS011;39910;47.154;27.614;2023-07-31T02:16:47;11.07;;;10.57;;
34737;SDS011;39910;47.154;27.614;2023-07-31T02:19:12;11.32;;;10.82;;
34737;SDS011;39910;47.154;27.614;2023-07-31T02:21:38;11.18;;;10.68;;
34737;SDS011;39910;47.154;27.614;2023-07-31T02:24:03;10.93;;;10.43;;
34737;SDS011;39910;47.154;27.614;2023-07-31T02:26:28;10.70;;;10.20;;
34737;SDS011;39910;47.154;27.614;2023-07-31T02:28:54;10.68;;;10.18;;
34737;SDS011;39910;47.154;27.614;2023-07-31T02:31:19;11.38;;;10.88;;
34737;SDS011;39910;47.154;27.614;2023-07-31T02:33:44;11.02;;;10.52;;
34737;SDS011;39910;47.154;27.614;2023-07-31T02:36:10;11.25;;;10.75;;
34737;SDS011;39910;47.154;27.614;2023-07-31T02:38:35;10.90;;;10.40;;
34737;SDS011;39910;47.154;27.614;2023-07-31T02:41:00;11.27;;;10.77;;
34737;SDS011;39910;47.154;27.614;2023-07-31T02:43:26;11.48;;;10.98;;
34737;SDS011;39910;47.154;27.614;2023-07-31T02:45:51;11.57;;;11.07;;
34737;SDS011;39910;47.154;27.614;2023-07-31T02:48:17;12.05;;;11.45;;
34737;SDS011;39910;47.154;27.614;2023-07-31T02:50:42;10.90;;;10.40;;
34737;SDS011;39910;47.154;27.614;2023-07-31T02:53:08;11.27;;;10.77;;
34737;SDS011;39910;47.154;27.614;2023-07-31T02:55:33;11.18;;;10.68;;
34737;SDS011;39910;47.154;27.614;2023-07-31T02:57:58;11.43;;;10.93;;
34737;SDS011;39910;47.154;27.614;2023-07-31T03:00:24;11.40;;;10.90;;
34737;SDS011;39910;47.154;27.614;2023-07-31T03:02:49;11.70;;;11.15;;
34737;SDS011;39910;47.154;27.614;2023-07-31T03:05:14;11.60;;;11.10;;
34737;SDS011;39910;47.154;27.614;2023-07-31T03:07:40;11.20;;;10.70;;
34737;SDS011;39910;47.154;27.614;2023-07-31T03:10:05;11.00;;;10.50;;
34737;SDS011;39910;47.154;27.614;2023-07-31T03:12:31;11.85;;;11.25;;
34737;SDS011;39910;47.154;27.614;2023-07-31T03:14:56;11.23;;;10.73;;
34737;SDS011;39910;47.154;27.614;2023-07-31T03:17:21;11.52;;;11.02;;
34737;SDS011;39910;47.154;27.614;2023-07-31T03:19:47;11.00;;;10.50;;
34737;SDS011;39910;47.154;27.614;2023-07-31T03:22:12;11.00;;;10.50;;
34737;SDS011;39910;47.154;27.614;2023-07-31T03:24:40;11.43;;;10.93;;
34737;SDS011;39910;47.154;27.614;2023-07-31T03:27:05;11.10;;;10.60;;
34737;SDS011;39910;47.154;27.614;2023-07-31T03:29:30;11.15;;;10.65;;
34737;SDS011;39910;47.154;27.614;2023-07-31T03:31:56;11.38;;;10.88;;
34737;SDS011;39910;47.154;27.614;2023-07-31T03:34:21;11.30;;;10.80;;
34737;SDS011;39910;47.154;27.614;2023-07-31T03:36:46;11.32;;;10.82;;
34737;SDS011;39910;47.154;27.614;2023-07-31T03:39:12;11.00;;;10.50;;
34737;SDS011;39910;47.154;27.614;2023-07-31T03:41:37;11.40;;;10.90;;
34737;SDS011;39910;47.154;27.614;2023-07-31T03:44:02;11.18;;;10.68;;
34737;SDS011;39910;47.154;27.614;2023-07-31T03:46:28;11.90;;;11.30;;
34737;SDS011;39910;47.154;27.614;2023-07-31T03:48:53;10.98;;;10.48;;
34737;SDS011;39910;47.154;27.614;2023-07-31T03:51:18;11.10;;;10.60;;
34737;SDS011;39910;47.154;27.614;2023-07-31T03:53:44;11.20;;;10.70;;
34737;SDS011;39910;47.154;27.614;2023-07-31T03:56:09;11.93;;;11.32;;
34737;SDS011;39910;47.154;27.614;2023-07-31T03:58:34;11.48;;;10.98;;
34737;SDS011;39910;47.154;27.614;2023-07-31T04:01:01;11.35;;;10.85;;
34737;SDS011;39910;47.154;27.614;2023-07-31T04:03:26;11.90;;;11.30;;
34737;SDS011;39910;47.154;27.614;2023-07-31T04:05:54;11.20;;;10.70;;
34737;SDS011;39910;47.154;27.614;2023-07-31T04:08:19;11.10;;;10.60;;
34737;SDS011;39910;47.154;27.614;2023-07-31T04:10:44;11.53;;;11.03;;
34737;SDS011;39910;47.154;27.614;2023-07-31T04:13:10;11.13;;;10.63;;
34737;SDS011;39910;47.154;27.614;2023-07-31T04:15:35;11.13;;;10.63;;
34737;SDS011;39910;47.154;27.614;2023-07-31T04:18:00;11.63;;;11.13;;
34737;SDS011;39910;47.154;27.614;2023-07-31T04:20:26;11.02;;;10.52;;
34737;SDS011;39910;47.154;27.614;2023-07-31T04:22:51;11.38;;;10.88;;
34737;SDS011;39910;47.154;27.614;2023-07-31T04:25:16;11.90;;;11.30;;
34737;SDS011;39910;47.154;27.614;2023-07-31T04:27:42;11.02;;;10.52;;
34737;SDS011;39910;47.154;27.614;2023-07-31T04:30:07;11.50;;;11.00;;
34737;SDS011;39910;47.154;27.614;2023-07-31T04:32:32;11.35;;;10.85;;
34737;SDS011;39910;47.154;27.614;2023-07-31T04:34:58;11.05;;;10.55;;
34737;SDS011;39910;47.154;27.614;2023-07-31T04:37:23;11.70;;;11.20;;
34737;SDS011;39910;47.154;27.614;2023-07-31T04:39:48;11.05;;;10.55;;
34737;SDS011;39910;47.154;27.614;2023-07-31T04:42:14;11.48;;;10.98;;
34737;SDS011;39910;47.154;27.614;2023-07-31T04:44:39;11.43;;;10.93;;
34737;SDS011;39910;47.154;27.614;2023-07-31T04:47:04;11.30;;;10.80;;
34737;SDS011;39910;47.154;27.614;2023-07-31T04:49:31;12.00;;;11.40;;
34737;SDS011;39910;47.154;27.614;2023-07-31T04:51:57;11.25;;;10.75;;
34737;SDS011;39910;47.154;27.614;2023-07-31T04:54:22;11.35;;;10.85;;
34737;SDS011;39910;47.154;27.614;2023-07-31T04:56:47;11.63;;;11.13;;
34737;SDS011;39910;47.154;27.614;2023-07-31T04:59:12;11.50;;;11.00;;
34737;SDS011;39910;47.154;27.614;2023-07-31T05:01:38;11.85;;;11.25;;
34737;SDS011;39910;47.154;27.614;2023-07-31T05:04:03;10.95;;;10.45;;
34737;SDS011;39910;47.154;27.614;2023-07-31T05:06:28;11.77;;;11.25;;
34737;SDS011;39910;47.154;27.614;2023-07-31T05:08:54;11.80;;;11.25;;
34737;SDS011;39910;47.154;27.614;2023-07-31T05:11:19;11.52;;;11.02;;
34737;SDS011;39910;47.154;27.614;2023-07-31T05:13:44;12.05;;;11.45;;
34737;SDS011;39910;47.154;27.614;2023-07-31T05:16:09;11.38;;;10.88;;
34737;SDS011;39910;47.154;27.614;2023-07-31T05:18:35;11.30;;;10.80;;
34737;SDS011;39910;47.154;27.614;2023-07-31T05:21:00;11.80;;;11.23;;
34737;SDS011;39910;47.154;27.614;2023-07-31T05:23:25;11.40;;;10.90;;
34737;SDS011;39910;47.154;27.614;2023-07-31T05:25:51;11.27;;;10.77;;
34737;SDS011;39910;47.154;27.614;2023-07-31T05:28:16;11.57;;;11.07;;
34737;SDS011;39910;47.154;27.614;2023-07-31T05:30:41;11.65;;;11.13;;
34737;SDS011;39910;47.154;27.614;2023-07-31T05:33:07;11.50;;;11.00;;
34737;SDS011;39910;47.154;27.614;2023-07-31T05:35:32;11.07;;;10.57;;
34737;SDS011;39910;47.154;27.614;2023-07-31T05:37:57;11.13;;;10.63;;
34737;SDS011;39910;47.154;27.614;2023-07-31T05:40:23;11.20;;;10.70;;
34737;SDS011;39910;47.154;27.614;2023-07-31T05:42:48;11.35;;;10.85;;
34737;SDS011;39910;47.154;27.614;2023-07-31T05:45:13;13.02;;;12.38;;
34737;SDS011;39910;47.154;27.614;2023-07-31T05:47:39;12.15;;;11.55;;
34737;SDS011;39910;47.154;27.614;2023-07-31T05:50:04;11.48;;;10.98;;
34737;SDS011;39910;47.154;27.614;2023-07-31T05:52:30;11.45;;;10.95;;
34737;SDS011;39910;47.154;27.614;2023-07-31T05:54:55;11.82;;;11.25;;
34737;SDS011;39910;47.154;27.614;2023-07-31T05:57:20;12.45;;;11.85;;
34737;SDS011;39910;47.154;27.614;2023-07-31T05:59:46;11.75;;;11.20;;
34737;SDS011;39910;47.154;27.614;2023-07-31T06:02:12;11.38;;;10.88;;
34737;SDS011;39910;47.154;27.614;2023-07-31T06:04:37;12.20;;;11.60;;
34737;SDS011;39910;47.154;27.614;2023-07-31T06:07:03;11.82;;;11.23;;
34737;SDS011;39910;47.154;27.614;2023-07-31T06:09:28;11.45;;;10.95;;
34737;SDS011;39910;47.154;27.614;2023-07-31T06:11:53;11.52;;;11.02;;
34737;SDS011;39910;47.154;27.614;2023-07-31T06:14:19;11.68;;;11.13;;
34737;SDS011;39910;47.154;27.614;2023-07-31T06:16:44;11.77;;;11.20;;
34737;SDS011;39910;47.154;27.614;2023-07-31T06:19:10;11.40;;;10.90;;
34737;SDS011;39910;47.154;27.614;2023-07-31T06:21:35;11.82;;;11.25;;
34737;SDS011;39910;47.154;27.614;2023-07-31T06:24:02;11.45;;;10.95;;
34737;SDS011;39910;47.154;27.614;2023-07-31T06:26:28;11.82;;;11.23;;
34737;SDS011;39910;47.154;27.614;2023-07-31T06:28:53;11.45;;;10.95;;
34737;SDS011;39910;47.154;27.614;2023-07-31T06:31:18;11.23;;;10.73;;
34737;SDS011;39910;47.154;27.614;2023-07-31T06:33:47;12.38;;;11.77;;
34737;SDS011;39910;47.154;27.614;2023-07-31T06:36:13;11.52;;;11.02;;
34737;SDS011;39910;47.154;27.614;2023-07-31T06:38:38;11.38;;;10.88;;
34737;SDS011;39910;47.154;27.614;2023-07-31T06:41:03;11.10;;;10.60;;
34737;SDS011;39910;47.154;27.614;2023-07-31T06:43:29;12.93;;;12.32;;
34737;SDS011;39910;47.154;27.614;2023-07-31T06:45:54;13.05;;;12.40;;
34737;SDS011;39910;47.154;27.614;2023-07-31T06:48:19;12.13;;;11.52;;
34737;SDS011;39910;47.154;27.614;2023-07-31T06:50:44;11.93;;;11.32;;
34737;SDS011;39910;47.154;27.614;2023-07-31T06:53:10;12.60;;;12.00;;
34737;SDS011;39910;47.154;27.614;2023-07-31T06:55:35;12.15;;;11.55;;
34737;SDS011;39910;47.154;27.614;2023-07-31T06:58:00;12.55;;;11.95;;
34737;SDS011;39910;47.154;27.614;2023-07-31T07:00:26;12.20;;;11.60;;
34737;SDS011;39910;47.154;27.614;2023-07-31T07:02:51;12.20;;;11.60;;
34737;SDS011;39910;47.154;27.614;2023-07-31T07:05:17;12.30;;;11.70;;
34737;SDS011;39910;47.154;27.614;2023-07-31T07:07:43;12.55;;;11.95;;
34737;SDS011;39910;47.154;27.614;2023-07-31T07:10:08;12.27;;;11.68;;
34737;SDS011;39910;47.154;27.614;2023-07-31T07:12:34;12.27;;;11.68;;
34737;SDS011;39910;47.154;27.614;2023-07-31T07:14:59;12.63;;;12.02;;
34737;SDS011;39910;47.154;27.614;2023-07-31T07:17:25;11.95;;;11.35;;
34737;SDS011;39910;47.154;27.614;2023-07-31T07:19:50;13.85;;;13.15;;
34737;SDS011;39910;47.154;27.614;2023-07-31T07:22:16;12.73;;;12.13;;
34737;SDS011;39910;47.154;27.614;2023-07-31T07:24:41;12.65;;;12.05;;
34737;SDS011;39910;47.154;27.614;2023-07-31T07:27:07;12.20;;;11.60;;
34737;SDS011;39910;47.154;27.614;2023-07-31T07:29:33;12.52;;;11.93;;
34737;SDS011;39910;47.154;27.614;2023-07-31T07:31:59;12.48;;;11.88;;
34737;SDS011;39910;47.154;27.614;2023-07-31T07:34:27;12.38;;;11.77;;
34737;SDS011;39910;47.154;27.614;2023-07-31T07:36:53;12.13;;;11.52;;
34737;SDS011;39910;47.154;27.614;2023-07-31T07:39:18;12.63;;;12.02;;
34737;SDS011;39910;47.154;27.614;2023-07-31T07:41:43;13.63;;;12.93;;
34737;SDS011;39910;47.154;27.614;2023-07-31T07:44:09;12.90;;;12.30;;
34737;SDS011;39910;47.154;27.614;2023-07-31T07:46:34;12.13;;;11.52;;
34737;SDS011;39910;47.154;27.614;2023-07-31T07:48:59;12.75;;;12.15;;
34737;SDS011;39910;47.154;27.614;2023-07-31T07:51:25;12.20;;;11.60;;
34737;SDS011;39910;47.154;27.614;2023-07-31T07:53:50;12.85;;;12.25;;
34737;SDS011;39910;47.154;27.614;2023-07-31T07:56:15;12.35;;;11.75;;
34737;SDS011;39910;47.154;27.614;2023-07-31T07:58:41;13.13;;;12.48;;
34737;SDS011;39910;47.154;27.614;2023-07-31T08:01:06;12.30;;;11.70;;
34737;SDS011;39910;47.154;27.614;2023-07-31T08:03:31;12.00;;;11.40;;
34737;SDS011;39910;47.154;27.614;2023-07-31T08:06:00;12.48;;;11.88;;
34737;SDS011;39910;47.154;27.614;2023-07-31T08:08:25;12.02;;;11.43;;
34737;SDS011;39910;47.154;27.614;2023-07-31T08:10:51;11.77;;;11.23;;
34737;SDS011;39910;47.154;27.614;2023-07-31T08:13:16;12.68;;;12.07;;
34737;SDS011;39910;47.154;27.614;2023-07-31T08:15:41;13.35;;;12.68;;
34737;SDS011;39910;47.154;27.614;2023-07-31T08:18:08;12.57;;;11.98;;
34737;SDS011;39910;47.154;27.614;2023-07-31T08:20:34;12.75;;;12.15;;
34737;SDS011;39910;47.154;27.614;2023-07-31T08:22:59;13.02;;;12.43;;
34737;SDS011;39910;47.154;27.614;2023-07-31T08:25:24;12.45;;;11.85;;
34737;SDS011;39910;47.154;27.614;2023-07-31T08:27:49;13.10;;;12.48;;
34737;SDS011;39910;47.154;27.614;2023-07-31T08:30:17;12.73;;;12.13;;
34737;SDS011;39910;47.154;27.614;2023-07-31T08:32:43;12.13;;;11.52;;
34737;SDS011;39910;47.154;27.614;2023-07-31T08:35:08;12.50;;;11.90;;
34737;SDS011;39910;47.154;27.614;2023-07-31T08:37:34;11.80;;;11.27;;
34737;SDS011;39910;47.154;27.614;2023-07-31T08:39:59;12.07;;;11.48;;
34737;SDS011;39910;47.154;27.614;2023-07-31T08:42:24;12.25;;;11.65;;
34737;SDS011;39910;47.154;27.614;2023-07-31T08:44:50;13.18;;;12.57;;
34737;SDS011;39910;47.154;27.614;2023-07-31T08:47:16;12.20;;;11.60;;
34737;SDS011;39910;47.154;27.614;2023-07-31T08:49:41;12.23;;;11.63;;
34737;SDS011;39910;47.154;27.614;2023-07-31T08:52:07;12.00;;;11.40;;
34737;SDS011;39910;47.154;27.614;2023-07-31T08:54:32;12.60;;;12.00;;
34737;SDS011;39910;47.154;27.614;2023-07-31T08:56:58;12.77;;;12.18;;
34737;SDS011;39910;47.154;27.614;2023-07-31T08:59:25;12.88;;;12.27;;
34737;SDS011;39910;47.154;27.614;2023-07-31T09:01:53;12.40;;;11.80;;
34737;SDS011;39910;47.154;27.614;2023-07-31T09:04:19;12.50;;;11.90;;
34737;SDS011;39910;47.154;27.614;2023-07-31T09:06:44;12.82;;;12.23;;
34737;SDS011;39910;47.154;27.614;2023-07-31T09:09:10;11.98;;;11.38;;
34737;SDS011;39910;47.154;27.614;2023-07-31T09:11:36;12.60;;;12.00;;
34737;SDS011;39910;47.154;27.614;2023-07-31T09:14:02;13.55;;;12.85;;
34737;SDS011;39910;47.154;27.614;2023-07-31T09:16:33;12.40;;;11.80;;
34737;SDS011;39910;47.154;27.614;2023-07-31T09:18:59;12.95;;;12.35;;
34737;SDS011;39910;47.154;27.614;2023-07-31T09:21:26;12.05;;;11.45;;
34737;SDS011;39910;47.154;27.614;2023-07-31T09:23:53;13.55;;;12.85;;
34737;SDS011;39910;47.154;27.614;2023-07-31T09:26:32;12.32;;;11.73;;
34737;SDS011;39910;47.154;27.614;2023-07-31T09:28:58;13.05;;;12.45;;
34737;SDS011;39910;47.154;27.614;2023-07-31T09:31:42;12.43;;;11.82;;
34737;SDS011;39910;47.154;27.614;2023-07-31T09:34:08;12.52;;;11.93;;
34737;SDS011;39910;47.154;27.614;2023-07-31T09:36:40;12.32;;;11.73;;
34737;SDS011;39910;47.154;27.614;2023-07-31T09:39:06;12.63;;;12.02;;
34737;SDS011;39910;47.154;27.614;2023-07-31T09:41:35;12.05;;;11.48;;
34737;SDS011;39910;47.154;27.614;2023-07-31T09:44:01;12.68;;;12.07;;
34737;SDS011;39910;47.154;27.614;2023-07-31T09:46:26;12.52;;;11.93;;
34737;SDS011;39910;47.154;27.614;2023-07-31T09:48:52;12.70;;;12.10;;
34737;SDS011;39910;47.154;27.614;2023-07-31T09:51:24;12.15;;;11.55;;
34737;SDS011;39910;47.154;27.614;2023-07-31T09:53:50;12.70;;;12.10;;
34737;SDS011;39910;47.154;27.614;2023-07-31T09:56:17;12.88;;;12.27;;
34737;SDS011;39910;47.154;27.614;2023-07-31T09:58:43;12.32;;;11.73;;
34737;SDS011;39910;47.154;27.614;2023-07-31T10:01:08;12.68;;;12.07;;
34737;SDS011;39910;47.154;27.614;2023-07-31T10:03:34;12.60;;;12.00;;
34737;SDS011;39910;47.154;27.614;2023-07-31T10:05:59;12.35;;;11.75;;
34737;SDS011;39910;47.154;27.614;2023-07-31T10:08:29;12.93;;;12.32;;
34737;SDS011;39910;47.154;27.614;2023-07-31T10:10:55;12.55;;;11.95;;
34737;SDS011;39910;47.154;27.614;2023-07-31T10:13:23;12.55;;;11.95;;
34737;SDS011;39910;47.154;27.614;2023-07-31T10:15:48;12.52;;;11.93;;
34737;SDS011;39910;47.154;27.614;2023-07-31T10:18:14;12.38;;;11.77;;
34737;SDS011;39910;47.154;27.614;2023-07-31T10:20:40;13.25;;;12.65;;
34737;SDS011;39910;47.154;27.614;2023-07-31T10:23:06;12.90;;;12.30;;
34737;SDS011;39910;47.154;27.614;2023-07-31T10:25:31;12.52;;;11.93;;
34737;SDS011;39910;47.154;27.614;2023-07-31T10:27:57;13.02;;;12.43;;
34737;SDS011;39910;47.154;27.614;2023-07-31T10:30:24;14.10;;;13.40;;
34737;SDS011;39910;47.154;27.614;2023-07-31T10:32:50;12.75;;;12.15;;
34737;SDS011;39910;47.154;27.614;2023-07-31T10:35:16;12.45;;;11.85;;
34737;SDS011;39910;47.154;27.614;2023-07-31T10:37:42;12.70;;;12.10;;
34737;SDS011;39910;47.154;27.614;2023-07-31T10:42:45;12.40;;;11.80;;
34737;SDS011;39910;47.154;27.614;2023-07-31T10:45:12;13.38;;;12.75;;
34737;SDS011;39910;47.154;27.614;2023-07-31T10:47:44;12.70;;;12.10;;
34737;SDS011;39910;47.154;27.614;2023-07-31T10:50:19;12.63;;;12.02;;
34737;SDS011;39910;47.154;27.614;2023-07-31T10:52:48;12.85;;;12.25;;
34737;SDS011;39910;47.154;27.614;2023-07-31T10:55:15;12.85;;;12.25;;
34737;SDS011;39910;47.154;27.614;2023-07-31T10:57:44;12.77;;;12.18;;
34737;SDS011;39910;47.154;27.614;2023-07-31T11:02:55;13.02;;;12.43;;
34737;SDS011;39910;47.154;27.614;2023-07-31T11:05:20;12.30;;;11.70;;
34737;SDS011;39910;47.154;27.614;2023-07-31T11:07:50;12.73;;;12.13;;
34737;SDS011;39910;47.154;27.614;2023-07-31T11:10:16;12.00;;;11.48;;
34737;SDS011;39910;47.154;27.614;2023-07-31T11:12:41;12.00;;;11.45;;
34737;SDS011;39910;47.154;27.614;2023-07-31T11:15:07;12.30;;;11.70;;
34737;SDS011;39910;47.154;27.614;2023-07-31T11:17:32;12.65;;;12.05;;
34737;SDS011;39910;47.154;27.614;2023-07-31T11:19:57;13.00;;;12.40;;
34737;SDS011;39910;47.154;27.614;2023-07-31T11:22:23;12.30;;;11.70;;
34737;SDS011;39910;47.154;27.614;2023-07-31T11:24:48;12.40;;;11.80;;
34737;SDS011;39910;47.154;27.614;2023-07-31T11:27:14;12.70;;;12.10;;
34737;SDS011;39910;47.154;27.614;2023-07-31T11:29:39;12.20;;;11.60;;
34737;SDS011;39910;47.154;27.614;2023-07-31T11:32:04;12.70;;;12.10;;
34737;SDS011;39910;47.154;27.614;2023-07-31T11:34:30;11.82;;;11.32;;
34737;SDS011;39910;47.154;27.614;2023-07-31T11:36:55;12.32;;;11.73;;
34737;SDS011;39910;47.154;27.614;2023-07-31T11:39:20;11.55;;;11.05;;
34737;SDS011;39910;47.154;27.614;2023-07-31T11:41:47;12.18;;;11.57;;
34737;SDS011;39910;47.154;27.614;2023-07-31T11:44:12;12.93;;;12.32;;
34737;SDS011;39910;47.154;27.614;2023-07-31T11:46:37;12.98;;;12.38;;
34737;SDS011;39910;47.154;27.614;2023-07-31T11:49:03;12.75;;;12.15;;
34737;SDS011;39910;47.154;27.614;2023-07-31T11:51:29;12.48;;;11.88;;
34737;SDS011;39910;47.154;27.614;2023-07-31T11:53:56;12.43;;;11.82;;
34737;SDS011;39910;47.154;27.614;2023-07-31T11:56:21;12.23;;;11.63;;
34737;SDS011;39910;47.154;27.614;2023-07-31T11:58:52;12.93;;;12.32;;
34737;SDS011;39910;47.154;27.614;2023-07-31T12:01:18;12.85;;;12.25;;
34737;SDS011;39910;47.154;27.614;2023-07-31T12:03:45;13.05;;;12.45;;
34737;SDS011;39910;47.154;27.614;2023-07-31T12:06:10;11.55;;;11.05;;
34737;SDS011;39910;47.154;27.614;2023-07-31T12:08:36;12.73;;;12.13;;
34737;SDS011;39910;47.154;27.614;2023-07-31T12:11:06;12.43;;;11.82;;
34737;SDS011;39910;47.154;27.614;2023-07-31T12:13:32;11.73;;;11.23;;
34737;SDS011;39910;47.154;27.614;2023-07-31T12:15:58;12.95;;;12.35;;
34737;SDS011;39910;47.154;27.614;2023-07-31T12:18:25;13.35;;;12.75;;
34737;SDS011;39910;47.154;27.614;2023-07-31T12:20:54;12.73;;;12.13;;
34737;SDS011;39910;47.154;27.614;2023-07-31T12:23:21;12.32;;;11.73;;
34737;SDS011;39910;47.154;27.614;2023-07-31T12:26:09;12.90;;;12.30;;
34737;SDS011;39910;47.154;27.614;2023-07-31T12:28:39;12.35;;;11.75;;
34737;SDS011;39910;47.154;27.614;2023-07-31T12:31:05;13.07;;;12.48;;
34737;SDS011;39910;47.154;27.614;2023-07-31T12:33:35;12.45;;;11.85;;
34737;SDS011;39910;47.154;27.614;2023-07-31T12:36:01;12.82;;;12.23;;
34737;SDS011;39910;47.154;27.614;2023-07-31T12:38:26;12.70;;;12.10;;
34737;SDS011;39910;47.154;27.614;2023-07-31T12:40:52;12.88;;;12.27;;
34737;SDS011;39910;47.154;27.614;2023-07-31T12:43:17;12.63;;;12.02;;
34737;SDS011;39910;47.154;27.614;2023-07-31T12:45:42;13.05;;;12.45;;
34737;SDS011;39910;47.154;27.614;2023-07-31T12:48:08;12.77;;;12.18;;
34737;SDS011;39910;47.154;27.614;2023-07-31T12:50:33;13.02;;;12.43;;
34737;SDS011;39910;47.154;27.614;2023-07-31T12:53:01;12.30;;;11.73;;
34737;SDS011;39910;47.154;27.614;2023-07-31T12:55:26;12.45;;;11.85;;
34737;SDS011;39910;47.154;27.614;2023-07-31T12:57:52;12.25;;;11.65;;
34737;SDS011;39910;47.154;27.614;2023-07-31T13:00:17;13.23;;;12.63;;
34737;SDS011;39910;47.154;27.614;2023-07-31T13:02:42;12.75;;;12.15;;
34737;SDS011;39910;47.154;27.614;2023-07-31T13:05:08;12.85;;;12.25;;
34737;SDS011;39910;47.154;27.614;2023-07-31T13:07:34;11.95;;;11.45;;
34737;SDS011;39910;47.154;27.614;2023-07-31T13:09:59;12.55;;;11.95;;
34737;SDS011;39910;47.154;27.614;2023-07-31T13:12:24;12.77;;;12.18;;
34737;SDS011;39910;47.154;27.614;2023-07-31T13:14:50;12.52;;;11.93;;
34737;SDS011;39910;47.154;27.614;2023-07-31T13:17:15;12.45;;;11.85;;
34737;SDS011;39910;47.154;27.614;2023-07-31T13:19:41;12.47;;;11.87;;
34737;SDS011;39910;47.154;27.614;2023-07-31T13:22:07;13.27;;;12.68;;
34737;SDS011;39910;47.154;27.614;2023-07-31T13:24:33;12.60;;;12.00;;
34737;SDS011;39910;47.154;27.614;2023-07-31T13:26:58;12.73;;;12.13;;
34737;SDS011;39910;47.154;27.614;2023-07-31T13:29:23;13.05;;;12.45;;
34737;SDS011;39910;47.154;27.614;2023-07-31T13:31:49;12.55;;;11.95;;
34737;SDS011;39910;47.154;27.614;2023-07-31T13:34:14;12.68;;;12.07;;
34737;SDS011;39910;47.154;27.614;2023-07-31T13:36:40;11.95;;;11.45;;
34737;SDS011;39910;47.154;27.614;2023-07-31T13:39:06;12.48;;;11.88;;
34737;SDS011;39910;47.154;27.614;2023-07-31T13:41:31;12.55;;;11.95;;
34737;SDS011;39910;47.154;27.614;2023-07-31T13:43:56;12.88;;;12.27;;
34737;SDS011;39910;47.154;27.614;2023-07-31T13:46:21;12.23;;;11.63;;
34737;SDS011;39910;47.154;27.614;2023-07-31T13:48:47;12.05;;;11.50;;
34737;SDS011;39910;47.154;27.614;2023-07-31T13:51:12;12.02;;;11.50;;
34737;SDS011;39910;47.154;27.614;2023-07-31T13:53:37;12.77;;;12.17;;
34737;SDS011;39910;47.154;27.614;2023-07-31T13:56:03;11.63;;;11.13;;
34737;SDS011;39910;47.154;27.614;2023-07-31T13:58:28;12.63;;;12.02;;
34737;SDS011;39910;47.154;27.614;2023-07-31T14:00:53;12.45;;;11.85;;
34737;SDS011;39910;47.154;27.614;2023-07-31T14:03:19;12.38;;;11.77;;
34737;SDS011;39910;47.154;27.614;2023-07-31T14:05:44;13.60;;;12.95;;
34737;SDS011;39910;47.154;27.614;2023-07-31T14:08:09;12.27;;;11.68;;
34737;SDS011;39910;47.154;27.614;2023-07-31T14:10:35;12.27;;;11.68;;
34737;SDS011;39910;47.154;27.614;2023-07-31T14:13:00;12.02;;;11.50;;
34737;SDS011;39910;47.154;27.614;2023-07-31T14:15:25;12.50;;;11.90;;
34737;SDS011;39910;47.154;27.614;2023-07-31T14:17:50;12.23;;;11.63;;